createdAt,value
2018-12-12T00:00:53.272Z,100.00
2018-12-12T00:03:20.815Z,100.00
2018-12-12T00:05:48.339Z,100.00
2018-12-12T00:08:15.884Z,100.00
2018-12-12T00:10:43.422Z,100.00
2018-12-12T00:13:11.041Z,100.00
2018-12-12T00:15:38.587Z,100.00
2018-12-12T00:18:06.240Z,100.00
2018-12-12T00:20:33.798Z,100.00
2018-12-12T00:23:01.362Z,100.00
2018-12-12T00:25:28.958Z,100.00
2018-12-12T00:27:56.529Z,100.00
2018-12-12T00:30:24.112Z,100.00
2018-12-12T00:32:52.178Z,100.00
2018-12-12T00:35:20.251Z,100.00
2018-12-12T00:37:49.735Z,100.00
2018-12-12T00:40:19.750Z,100.00
2018-12-12T00:42:47.861Z,100.00
2018-12-12T00:45:15.943Z,100.00
2018-12-12T00:47:45.136Z,100.00
2018-12-12T00:50:17.043Z,100.00
2018-12-12T00:52:45.340Z,100.00
2018-12-12T00:55:13.139Z,100.00
2018-12-12T00:57:41.413Z,100.00
2018-12-12T01:00:09.936Z,100.00
2018-12-12T01:02:38.264Z,100.00
2018-12-12T01:05:05.954Z,100.00
2018-12-12T01:07:33.532Z,100.00
2018-12-12T01:10:01.100Z,100.00
2018-12-12T01:12:28.668Z,100.00
2018-12-12T01:14:56.272Z,100.00
2018-12-12T01:17:23.892Z,100.00
2018-12-12T01:19:51.482Z,100.00
2018-12-12T01:22:19.056Z,100.00
2018-12-12T01:24:46.705Z,100.00
2018-12-12T01:27:14.246Z,100.00
2018-12-12T01:29:41.817Z,100.00
2018-12-12T01:32:09.343Z,100.00
2018-12-12T01:34:36.928Z,100.00
2018-12-12T01:37:04.696Z,100.00
2018-12-12T01:39:32.661Z,100.00
2018-12-12T01:42:00.221Z,100.00
2018-12-12T01:44:27.841Z,100.00
2018-12-12T01:46:55.400Z,100.00
2018-12-12T01:49:22.980Z,100.00
2018-12-12T01:51:50.572Z,100.00
2018-12-12T01:54:18.198Z,100.00
2018-12-12T01:56:45.748Z,100.00
2018-12-12T01:59:13.326Z,100.00
2018-12-12T02:01:40.843Z,100.00
2018-12-12T02:04:08.457Z,100.00
2018-12-12T02:06:36.066Z,100.00
2018-12-12T02:09:04.754Z,100.00
2018-12-12T02:11:32.299Z,100.00
2018-12-12T02:13:59.849Z,100.00
2018-12-12T02:16:27.426Z,100.00
2018-12-12T02:18:55.188Z,100.00
2018-12-12T02:21:22.806Z,100.00
2018-12-12T02:23:50.379Z,100.00
2018-12-12T02:26:17.950Z,100.00
2018-12-12T02:28:45.518Z,100.00
2018-12-12T02:31:13.207Z,100.00
2018-12-12T02:33:40.788Z,100.00
2018-12-12T02:36:08.355Z,100.00
2018-12-12T02:38:35.916Z,100.00
2018-12-12T02:41:03.495Z,100.00
2018-12-12T02:43:31.054Z,100.00
2018-12-12T02:45:58.639Z,100.00
2018-12-12T02:48:26.253Z,100.00
2018-12-12T02:50:53.834Z,100.00
2018-12-12T02:53:21.423Z,100.00
2018-12-12T02:55:49.076Z,100.00
2018-12-12T02:58:16.622Z,100.00
2018-12-12T03:00:44.169Z,100.00
2018-12-12T03:03:11.713Z,100.00
2018-12-12T03:05:39.288Z,100.00
2018-12-12T03:08:06.913Z,100.00
2018-12-12T03:10:34.497Z,100.00
2018-12-12T03:13:02.060Z,100.00
2018-12-12T03:15:29.682Z,100.00
2018-12-12T03:17:57.210Z,100.00
2018-12-12T03:20:24.882Z,100.00
2018-12-12T03:22:52.494Z,100.00
2018-12-12T03:25:20.059Z,100.00
2018-12-12T03:27:47.666Z,100.00
2018-12-12T03:30:15.213Z,100.00
2018-12-12T03:32:42.773Z,100.00
2018-12-12T03:35:10.331Z,100.00
2018-12-12T03:37:37.910Z,100.00
2018-12-12T03:40:05.981Z,100.00
2018-12-12T03:42:34.008Z,100.00
2018-12-12T03:45:01.566Z,100.00
2018-12-12T03:47:29.160Z,100.00
2018-12-12T03:49:56.701Z,100.00
2018-12-12T03:52:24.288Z,100.00
2018-12-12T03:54:51.837Z,100.00
2018-12-12T03:57:19.396Z,100.00
2018-12-12T03:59:46.936Z,100.00
2018-12-12T04:02:14.589Z,100.00
2018-12-12T04:04:42.153Z,100.00
2018-12-12T04:07:09.736Z,100.00
2018-12-12T04:09:37.279Z,100.00
2018-12-12T04:12:04.852Z,100.00
2018-12-12T04:14:32.381Z,100.00
2018-12-12T04:17:00.088Z,100.00
2018-12-12T04:19:27.641Z,100.00
2018-12-12T04:21:55.216Z,100.00
2018-12-12T04:24:24.807Z,100.00
2018-12-12T04:26:52.418Z,100.00
2018-12-12T04:29:19.963Z,100.00
2018-12-12T04:31:47.566Z,100.00
2018-12-12T04:34:15.191Z,100.00
2018-12-12T04:36:42.883Z,100.00
2018-12-12T04:39:10.501Z,100.00
2018-12-12T04:41:38.168Z,100.00
2018-12-12T04:44:05.788Z,100.00
2018-12-12T04:46:33.377Z,100.00
2018-12-12T04:49:01.029Z,100.00
2018-12-12T04:51:28.556Z,100.00
2018-12-12T04:53:56.565Z,100.00
2018-12-12T04:56:24.159Z,100.00
2018-12-12T04:58:52.564Z,100.00
2018-12-12T05:01:20.242Z,100.00
2018-12-12T05:03:48.326Z,100.00
2018-12-12T05:06:16.024Z,100.00
2018-12-12T05:08:43.618Z,100.00
2018-12-12T05:11:11.334Z,100.00
2018-12-12T05:13:38.971Z,100.00
2018-12-12T05:16:06.531Z,100.00
2018-12-12T05:18:34.227Z,100.00
2018-12-12T05:21:01.800Z,100.00
2018-12-12T05:23:29.411Z,100.00
2018-12-12T05:25:56.983Z,100.00
2018-12-12T05:28:24.535Z,100.00
2018-12-12T05:30:52.453Z,100.00
2018-12-12T05:33:20.056Z,100.00
2018-12-12T05:35:47.564Z,100.00
2018-12-12T05:38:19.274Z,100.00
2018-12-12T05:40:46.860Z,100.00
2018-12-12T05:43:14.483Z,100.00
2018-12-12T05:45:42.287Z,100.00
2018-12-12T05:48:09.821Z,100.00
2018-12-12T05:50:37.341Z,100.00
2018-12-12T05:53:04.988Z,100.00
2018-12-12T05:55:32.543Z,100.00
2018-12-12T05:58:00.066Z,100.00
2018-12-12T06:00:27.610Z,100.00
2018-12-12T06:02:55.124Z,100.00
2018-12-12T06:05:22.671Z,100.00
2018-12-12T06:07:50.290Z,100.00
2018-12-12T06:10:17.847Z,100.00
2018-12-12T06:12:45.648Z,100.00
2018-12-12T06:15:13.206Z,100.00
2018-12-12T06:17:40.721Z,100.00
2018-12-12T06:20:08.468Z,100.00
2018-12-12T06:22:37.771Z,100.00
2018-12-12T06:25:05.829Z,100.00
2018-12-12T06:27:33.378Z,100.00
2018-12-12T06:30:00.920Z,100.00
2018-12-12T06:32:29.809Z,100.00
2018-12-12T06:34:57.378Z,100.00
2018-12-12T06:37:24.879Z,100.00
2018-12-12T06:39:52.423Z,100.00
2018-12-12T06:42:19.924Z,100.00
2018-12-12T06:44:47.476Z,100.00
2018-12-12T06:47:15.325Z,100.00
2018-12-12T06:49:42.863Z,100.00
2018-12-12T06:52:10.387Z,100.00
2018-12-12T06:54:37.920Z,100.00
2018-12-12T06:57:05.430Z,100.00
2018-12-12T06:59:32.969Z,100.00
2018-12-12T07:02:00.679Z,100.00
2018-12-12T07:04:28.210Z,100.00
2018-12-12T07:06:56.620Z,100.00
2018-12-12T07:09:24.180Z,100.00
2018-12-12T07:11:51.693Z,100.00
2018-12-12T07:14:19.198Z,100.00
2018-12-12T07:16:47.766Z,100.00
2018-12-12T07:19:15.272Z,100.00
2018-12-12T07:21:42.809Z,100.00
2018-12-12T07:24:10.314Z,100.00
2018-12-12T07:26:37.875Z,100.00
2018-12-12T07:29:05.400Z,100.00
2018-12-12T07:31:32.941Z,100.00
2018-12-12T07:34:01.359Z,100.00
2018-12-12T07:36:29.132Z,100.00
2018-12-12T07:38:56.646Z,100.00
2018-12-12T07:41:24.668Z,100.00
2018-12-12T07:43:52.190Z,100.00
2018-12-12T07:46:20.907Z,100.00
2018-12-12T07:48:48.410Z,100.00
2018-12-12T07:51:15.950Z,100.00
2018-12-12T07:53:43.464Z,100.00
2018-12-12T07:56:10.995Z,100.00
2018-12-12T07:58:38.492Z,100.00
2018-12-12T08:01:06.031Z,100.00
2018-12-12T08:03:33.539Z,100.00
2018-12-12T08:06:01.075Z,100.00
2018-12-12T08:08:28.585Z,100.00
2018-12-12T08:10:56.129Z,100.00
2018-12-12T08:13:23.651Z,100.00
2018-12-12T08:15:51.192Z,100.00
2018-12-12T08:18:18.704Z,100.00
2018-12-12T08:20:46.260Z,100.00
2018-12-12T08:23:14.165Z,100.00
2018-12-12T08:25:41.891Z,100.00
2018-12-12T08:28:09.420Z,100.00
2018-12-12T08:30:37.010Z,100.00
2018-12-12T08:33:10.878Z,100.00
2018-12-12T08:35:34.067Z,100.00
2018-12-12T08:38:01.602Z,100.00
2018-12-12T08:40:29.219Z,100.00
2018-12-12T08:42:56.727Z,100.00
2018-12-12T08:45:24.251Z,100.00
2018-12-12T08:47:51.813Z,100.00
2018-12-12T08:50:19.494Z,100.00
2018-12-12T08:52:47.032Z,100.00
2018-12-12T08:55:17.664Z,100.00
2018-12-12T08:57:44.106Z,100.00
2018-12-12T09:00:11.610Z,100.00
2018-12-12T09:02:39.149Z,100.00
2018-12-12T09:05:06.658Z,100.00
2018-12-12T09:07:34.206Z,100.00
2018-12-12T09:10:01.731Z,100.00
2018-12-12T09:12:29.278Z,100.00
2018-12-12T09:14:57.344Z,100.00
2018-12-12T09:17:24.901Z,100.00
2018-12-12T09:19:52.412Z,100.00
2018-12-12T09:22:19.948Z,100.00
2018-12-12T09:24:47.455Z,100.00
2018-12-12T09:27:14.985Z,100.00
2018-12-12T09:29:42.486Z,100.00
2018-12-12T09:32:10.032Z,100.00
2018-12-12T09:34:37.542Z,100.00
2018-12-12T09:37:05.090Z,100.00
2018-12-12T09:39:32.600Z,100.00
2018-12-12T09:42:00.126Z,100.00
2018-12-12T09:44:27.730Z,100.00
2018-12-12T09:46:55.270Z,100.00
2018-12-12T09:49:22.785Z,100.00
2018-12-12T09:51:50.314Z,100.00
2018-12-12T09:54:17.826Z,100.00
2018-12-12T09:56:45.378Z,100.00
2018-12-12T09:59:12.890Z,100.00
2018-12-12T10:01:40.402Z,100.00
2018-12-12T10:04:07.947Z,100.00
2018-12-12T10:06:35.451Z,100.00
2018-12-12T10:09:03.387Z,100.00
2018-12-12T10:11:30.901Z,100.00
2018-12-12T10:13:58.435Z,100.00
2018-12-12T10:16:25.954Z,100.00
2018-12-12T10:18:53.494Z,100.00
2018-12-12T10:21:21.007Z,100.00
2018-12-12T10:23:48.545Z,100.00
2018-12-12T10:26:16.063Z,100.00
2018-12-12T10:28:44.221Z,100.00
2018-12-12T10:31:12.122Z,100.00
2018-12-12T10:33:39.733Z,100.00
2018-12-12T10:36:07.245Z,100.00
2018-12-12T10:38:34.801Z,100.00
2018-12-12T10:41:02.310Z,100.00
2018-12-12T10:43:29.853Z,100.00
2018-12-12T10:45:57.365Z,100.00
2018-12-12T10:48:24.911Z,100.00
2018-12-12T10:50:52.422Z,100.00
2018-12-12T10:53:19.959Z,100.00
2018-12-12T10:55:47.464Z,100.00
2018-12-12T10:58:15.012Z,100.00
2018-12-12T11:00:44.521Z,100.00
2018-12-12T11:03:17.663Z,100.00
2018-12-12T11:05:45.227Z,100.00
2018-12-12T11:08:12.808Z,100.00
2018-12-12T11:10:40.808Z,100.00
2018-12-12T11:13:08.339Z,100.00
2018-12-12T11:15:35.844Z,100.00
2018-12-12T11:18:03.388Z,100.00
2018-12-12T11:20:30.905Z,100.00
2018-12-12T11:22:58.444Z,100.00
2018-12-12T11:25:25.961Z,100.00
2018-12-12T11:27:53.487Z,100.00
2018-12-12T11:30:20.983Z,100.00
2018-12-12T11:32:48.518Z,100.00
2018-12-12T11:35:16.026Z,100.00
2018-12-12T11:37:43.533Z,100.00
2018-12-12T11:40:11.098Z,100.00
2018-12-12T11:42:38.687Z,100.00
2018-12-12T11:45:06.308Z,100.00
2018-12-12T11:47:33.833Z,100.00
2018-12-12T11:50:01.370Z,100.00
2018-12-12T11:52:28.876Z,100.00
2018-12-12T11:54:56.404Z,100.00
2018-12-12T11:57:24.423Z,100.00
2018-12-12T11:59:51.954Z,100.00
2018-12-12T12:02:19.464Z,100.00
2018-12-12T12:04:47.005Z,100.00
2018-12-12T12:07:14.507Z,100.00
2018-12-12T12:09:42.039Z,100.00
2018-12-12T12:12:09.538Z,100.00
2018-12-12T12:14:37.079Z,100.00
2018-12-12T12:17:04.702Z,100.00
2018-12-12T12:19:32.263Z,100.00
2018-12-12T12:21:59.854Z,100.00
2018-12-12T12:24:27.384Z,100.00
2018-12-12T12:26:54.888Z,100.00
2018-12-12T12:29:22.507Z,100.00
2018-12-12T12:31:50.095Z,100.00
2018-12-12T12:34:17.747Z,100.00
2018-12-12T12:36:46.046Z,100.00
2018-12-12T12:39:13.585Z,100.00
2018-12-12T12:41:41.092Z,100.00
2018-12-12T12:44:08.626Z,100.00
2018-12-12T12:46:36.126Z,100.00
2018-12-12T12:49:03.731Z,100.00
2018-12-12T12:51:31.331Z,100.00
2018-12-12T12:54:00.212Z,100.00
2018-12-12T12:56:27.739Z,100.00
2018-12-12T12:58:55.272Z,100.00
2018-12-12T13:01:22.781Z,100.00
2018-12-12T13:03:50.437Z,100.00
2018-12-12T13:06:19.369Z,100.00
2018-12-12T13:08:47.018Z,100.00
2018-12-12T13:11:14.965Z,100.00
2018-12-12T13:13:43.108Z,100.00
2018-12-12T13:16:10.766Z,100.00
2018-12-12T13:18:38.353Z,100.00
2018-12-12T13:21:05.998Z,100.00
2018-12-12T13:23:33.520Z,100.00
2018-12-12T13:26:01.119Z,100.00
2018-12-12T13:28:28.867Z,100.00
2018-12-12T13:30:56.553Z,100.00
2018-12-12T13:33:24.124Z,100.00
2018-12-12T13:35:51.773Z,100.00
2018-12-12T13:38:20.912Z,100.00
2018-12-12T13:40:48.574Z,100.00
2018-12-12T13:43:16.162Z,100.00
2018-12-12T13:45:47.722Z,100.00
2018-12-12T13:48:15.411Z,100.00
2018-12-12T13:50:42.979Z,100.00
2018-12-12T13:53:13.959Z,100.00
2018-12-12T13:55:43.245Z,100.00
2018-12-12T13:58:10.867Z,100.00
2018-12-12T14:00:39.181Z,100.00
2018-12-12T14:03:07.047Z,100.00
2018-12-12T14:05:34.711Z,100.00
2018-12-12T14:08:02.276Z,100.00
2018-12-12T14:10:30.084Z,100.00
2018-12-12T14:12:57.656Z,100.00
2018-12-12T14:15:25.264Z,100.00
2018-12-12T14:17:52.803Z,100.00
2018-12-12T14:20:20.411Z,100.00
2018-12-12T14:22:48.036Z,100.00
2018-12-12T14:25:15.669Z,100.00
2018-12-12T14:27:43.481Z,100.00
2018-12-12T14:30:11.062Z,100.00
2018-12-12T14:32:38.615Z,100.00
2018-12-12T14:35:06.216Z,100.00
2018-12-12T14:37:33.968Z,100.00
2018-12-12T14:40:01.592Z,100.00
2018-12-12T14:42:29.140Z,100.00
2018-12-12T14:44:56.751Z,100.00
2018-12-12T14:47:24.257Z,100.00
2018-12-12T14:49:51.904Z,100.00
2018-12-12T14:52:21.044Z,100.00
2018-12-12T14:54:48.611Z,100.00
2018-12-12T14:57:16.282Z,100.00
2018-12-12T14:59:43.897Z,100.00
2018-12-12T15:02:12.002Z,100.00
2018-12-12T15:04:39.612Z,100.00
2018-12-12T15:07:07.268Z,100.00
2018-12-12T15:09:35.020Z,100.00
2018-12-12T15:12:02.830Z,100.00
2018-12-12T15:14:30.399Z,100.00
2018-12-12T15:17:01.268Z,100.00
2018-12-12T15:19:30.973Z,100.00
2018-12-12T15:21:58.724Z,100.00
2018-12-12T15:24:26.309Z,100.00
2018-12-12T15:26:53.859Z,100.00
2018-12-12T15:29:21.420Z,100.00
2018-12-12T15:31:48.978Z,100.00
2018-12-12T15:34:16.739Z,100.00
2018-12-12T15:36:45.272Z,100.00
2018-12-12T15:39:13.035Z,100.00
2018-12-12T15:41:40.742Z,100.00
2018-12-12T15:44:08.357Z,100.00
2018-12-12T15:46:36.980Z,100.00
2018-12-12T15:49:04.628Z,100.00
2018-12-12T15:51:32.211Z,100.00
2018-12-12T15:53:59.759Z,100.00
2018-12-12T15:56:27.471Z,99.99
2018-12-12T15:58:55.107Z,98.84
2018-12-12T16:01:22.890Z,99.00
2018-12-12T16:03:50.420Z,99.15
2018-12-12T16:06:18.012Z,98.94
2018-12-12T16:08:45.591Z,98.73
2018-12-12T16:11:19.541Z,98.68
2018-12-12T16:13:47.214Z,98.25
2018-12-12T16:16:28.693Z,99.05
2018-12-12T16:19:01.120Z,99.50
2018-12-12T16:21:31.955Z,100.00
2018-12-12T16:24:06.779Z,100.00
2018-12-12T16:26:37.067Z,100.00
2018-12-12T16:29:07.800Z,100.00
2018-12-12T16:31:39.483Z,100.00
2018-12-12T16:34:09.332Z,100.00
2018-12-12T16:36:38.184Z,100.00
2018-12-12T16:39:08.010Z,100.00
2018-12-12T16:41:39.610Z,100.00
2018-12-12T16:44:09.518Z,100.00
2018-12-12T16:46:40.110Z,100.00
2018-12-12T16:49:10.919Z,99.95
2018-12-12T16:51:43.432Z,100.00
2018-12-12T16:54:11.519Z,100.00
2018-12-12T16:56:39.881Z,100.00
2018-12-12T16:59:07.473Z,100.00
2018-12-12T17:01:36.482Z,100.00
2018-12-12T17:04:04.682Z,100.00
2018-12-12T17:06:32.876Z,100.00
2018-12-12T17:09:00.898Z,100.00
2018-12-12T17:11:29.139Z,100.00
2018-12-12T17:14:00.282Z,100.00
2018-12-12T17:16:28.362Z,100.00
2018-12-12T17:18:56.323Z,100.00
2018-12-12T17:21:31.047Z,100.00
2018-12-12T17:23:59.032Z,100.00
2018-12-12T17:26:28.596Z,100.00
2018-12-12T17:28:56.718Z,100.00
2018-12-12T17:31:25.650Z,100.00
2018-12-12T17:33:53.259Z,100.00
2018-12-12T17:36:20.879Z,100.00
2018-12-12T17:38:48.497Z,100.00
2018-12-12T17:41:17.866Z,100.00
2018-12-12T17:43:46.450Z,100.00
2018-12-12T17:46:14.193Z,100.00
2018-12-12T17:48:41.856Z,100.00
2018-12-12T17:51:09.469Z,100.00
2018-12-12T17:53:37.086Z,100.00
2018-12-12T17:56:04.723Z,100.00
2018-12-12T17:58:32.330Z,100.00
2018-12-12T18:01:00.348Z,100.00
2018-12-12T18:03:28.099Z,100.00
2018-12-12T18:05:55.868Z,100.00
2018-12-12T18:08:23.642Z,100.00
2018-12-12T18:10:55.138Z,100.00
2018-12-12T18:13:26.582Z,100.00
2018-12-12T18:15:55.501Z,100.00
2018-12-12T18:18:23.501Z,100.00
2018-12-12T18:20:54.975Z,100.00
2018-12-12T18:23:24.592Z,100.00
2018-12-12T18:25:55.887Z,100.00
2018-12-12T18:28:25.292Z,100.00
2018-12-12T18:33:29.209Z,100.00
2018-12-12T18:35:57.409Z,100.00
2018-12-12T18:38:26.630Z,100.00
2018-12-12T18:40:54.459Z,100.00
2018-12-12T18:43:22.213Z,100.00
2018-12-12T18:45:50.425Z,100.00
2018-12-12T18:48:18.272Z,100.00
2018-12-12T18:50:46.179Z,100.00
2018-12-12T18:53:14.127Z,100.00
2018-12-12T18:55:41.865Z,100.00
2018-12-12T18:58:09.656Z,100.00
2018-12-12T19:00:37.650Z,100.00
2018-12-12T19:03:05.693Z,100.00
2018-12-12T19:05:37.095Z,100.00
2018-12-12T19:08:04.814Z,100.00
2018-12-12T19:10:33.576Z,100.00
2018-12-12T19:13:03.849Z,100.00
2018-12-12T19:15:31.601Z,100.00
2018-12-12T19:17:59.331Z,100.00
2018-12-12T19:20:28.899Z,100.00
2018-12-12T19:22:57.746Z,100.00
2018-12-12T19:25:25.721Z,100.00
2018-12-12T19:27:53.224Z,100.00
2018-12-12T19:30:20.772Z,100.00
2018-12-12T19:32:48.271Z,100.00
2018-12-12T19:35:15.809Z,100.00
2018-12-12T19:37:43.792Z,100.00
2018-12-12T19:40:12.050Z,100.00
2018-12-12T19:42:40.093Z,100.00
2018-12-12T19:45:08.768Z,100.00
2018-12-12T19:47:36.648Z,100.00
2018-12-12T19:50:05.678Z,100.00
2018-12-12T19:52:33.241Z,100.00
2018-12-12T19:55:01.014Z,100.00
2018-12-12T19:57:30.680Z,100.00
2018-12-12T19:59:58.424Z,100.00
2018-12-12T20:02:26.288Z,100.00
2018-12-12T20:04:54.569Z,100.00
2018-12-12T20:07:22.150Z,100.00
2018-12-12T20:09:49.968Z,100.00
2018-12-12T20:12:17.649Z,100.00
2018-12-12T20:14:46.048Z,100.00
2018-12-12T20:17:13.763Z,100.00
2018-12-12T20:19:41.347Z,100.00
2018-12-12T20:22:08.940Z,100.00
2018-12-12T20:24:36.728Z,100.00
2018-12-12T20:27:04.429Z,100.00
2018-12-12T20:29:32.004Z,100.00
2018-12-12T20:31:59.679Z,100.00
2018-12-12T20:34:27.189Z,100.00
2018-12-12T20:36:55.615Z,100.00
2018-12-12T20:39:23.459Z,100.00
2018-12-12T20:41:50.995Z,100.00
2018-12-12T20:44:18.498Z,100.00
2018-12-12T20:46:46.025Z,100.00
2018-12-12T20:49:13.522Z,100.00
2018-12-12T20:51:41.168Z,100.00
2018-12-12T20:54:08.672Z,100.00
2018-12-12T20:56:36.198Z,100.00
2018-12-12T20:59:07.590Z,100.00
2018-12-12T21:01:36.902Z,100.00
2018-12-12T21:04:04.648Z,100.00
2018-12-12T21:06:32.237Z,100.00
2018-12-12T21:09:00.055Z,100.00
2018-12-12T21:11:27.731Z,100.00
2018-12-12T21:13:55.375Z,100.00
2018-12-12T21:16:23.148Z,100.00
2018-12-12T21:18:50.755Z,100.00
2018-12-12T21:21:18.348Z,100.00
2018-12-12T21:23:45.962Z,100.00
2018-12-12T21:26:13.914Z,100.00
2018-12-12T21:28:41.480Z,100.00
2018-12-12T21:31:09.047Z,100.00
2018-12-12T21:33:36.625Z,100.00
2018-12-12T21:36:04.748Z,100.00
2018-12-12T21:38:32.318Z,100.00
2018-12-12T21:40:59.870Z,100.00
2018-12-12T21:43:27.442Z,100.00
2018-12-12T21:45:55.068Z,100.00
2018-12-12T21:48:22.687Z,100.00
2018-12-12T21:50:50.244Z,100.00
2018-12-12T21:53:17.914Z,100.00
2018-12-12T21:55:45.474Z,100.00
2018-12-12T21:58:13.053Z,100.00
2018-12-12T22:00:40.583Z,100.00
2018-12-12T22:03:08.137Z,100.00
2018-12-12T22:05:35.677Z,100.00
2018-12-12T22:08:04.425Z,100.00
2018-12-12T22:10:31.949Z,100.00
2018-12-12T22:12:59.538Z,100.00
2018-12-12T22:15:27.093Z,100.00
2018-12-12T22:17:54.662Z,100.00
2018-12-12T22:20:22.191Z,100.00
2018-12-12T22:22:49.758Z,100.00
2018-12-12T22:25:17.337Z,100.00
2018-12-12T22:27:44.977Z,100.00
2018-12-12T22:30:12.542Z,100.00
2018-12-12T22:32:40.101Z,100.00
2018-12-12T22:35:07.682Z,100.00
2018-12-12T22:37:35.265Z,100.00
2018-12-12T22:40:02.823Z,100.00
2018-12-12T22:42:30.399Z,100.00
2018-12-12T22:44:57.960Z,100.00
2018-12-12T22:47:26.063Z,100.00
2018-12-12T22:49:56.021Z,100.00
2018-12-12T22:52:23.976Z,100.00
2018-12-12T22:54:51.556Z,100.00
2018-12-12T22:57:19.112Z,100.00
2018-12-12T22:59:46.629Z,100.00
2018-12-12T23:02:14.203Z,100.00
2018-12-12T23:04:44.544Z,100.00
2018-12-12T23:07:12.893Z,100.00
2018-12-12T23:12:32.836Z,100.00
2018-12-12T23:15:05.432Z,100.00
2018-12-12T23:17:36.445Z,100.00
2018-12-12T23:20:11.117Z,100.00
2018-12-12T23:22:39.588Z,100.00
2018-12-12T23:25:07.887Z,100.00
2018-12-12T23:27:36.219Z,100.00
2018-12-12T23:32:57.317Z,100.00
2018-12-12T23:35:26.998Z,100.00
2018-12-12T23:37:55.865Z,100.00
2018-12-12T23:40:24.081Z,100.00
2018-12-12T23:42:51.684Z,100.00
2018-12-12T23:45:19.400Z,100.00
2018-12-12T23:47:46.956Z,100.00
2018-12-12T23:50:14.520Z,100.00
2018-12-12T23:52:46.823Z,100.00
2018-12-12T23:55:19.749Z,100.00
2018-12-12T23:57:47.462Z,100.00
